sensor_id;sensor_type;location;lat;lon;timestamp;pressure;altitude;pressure_sealevel;temperature;humidity
77311;BME280;66371;52.714;5.074;2023-08-20T00:01:44;102150.63;;;15.79;100.00
77311;BME280;66371;52.714;5.074;2023-08-20T00:04:10;102157.38;;;15.83;100.00
77311;BME280;66371;52.714;5.074;2023-08-20T00:06:36;102155.84;;;15.81;100.00
77311;BME280;66371;52.714;5.074;2023-08-20T00:09:01;102156.50;;;15.75;100.00
77311;BME280;66371;52.714;5.074;2023-08-20T00:11:28;102159.38;;;15.73;100.00
77311;BME280;66371;52.714;5.074;2023-08-20T00:13:54;102159.69;;;15.70;100.00
77311;BME280;66371;52.714;5.074;2023-08-20T00:16:20;102163.78;;;15.82;100.00
77311;BME280;66371;52.714;5.074;2023-08-20T00:18:46;102158.22;;;15.84;100.00
77311;BME280;66371;52.714;5.074;2023-08-20T00:21:13;102157.22;;;15.85;100.00
77311;BME280;66371;52.714;5.074;2023-08-20T00:23:39;102158.91;;;15.86;100.00
77311;BME280;66371;52.714;5.074;2023-08-20T00:26:05;102165.13;;;15.87;100.00
77311;BME280;66371;52.714;5.074;2023-08-20T00:28:31;102167.00;;;15.86;100.00
77311;BME280;66371;52.714;5.074;2023-08-20T00:30:59;102168.53;;;15.89;100.00
77311;BME280;66371;52.714;5.074;2023-08-20T00:33:25;102168.38;;;15.90;100.00
77311;BME280;66371;52.714;5.074;2023-08-20T00:35:51;102170.03;;;15.91;100.00
77311;BME280;66371;52.714;5.074;2023-08-20T00:38:17;102171.59;;;15.94;100.00
77311;BME280;66371;52.714;5.074;2023-08-20T00:40:43;102179.69;;;15.94;100.00
77311;BME280;66371;52.714;5.074;2023-08-20T00:43:09;102177.16;;;15.92;100.00
77311;BME280;66371;52.714;5.074;2023-08-20T00:45:34;102175.91;;;15.87;100.00
77311;BME280;66371;52.714;5.074;2023-08-20T00:48:03;102178.13;;;15.91;100.00
77311;BME280;66371;52.714;5.074;2023-08-20T00:50:29;102181.69;;;15.92;100.00
77311;BME280;66371;52.714;5.074;2023-08-20T00:52:54;102189.94;;;15.90;100.00
77311;BME280;66371;52.714;5.074;2023-08-20T00:55:20;102190.44;;;15.86;100.00
77311;BME280;66371;52.714;5.074;2023-08-20T00:57:46;102203.75;;;15.87;100.00
77311;BME280;66371;52.714;5.074;2023-08-20T01:00:13;102198.50;;;15.86;100.00
77311;BME280;66371;52.714;5.074;2023-08-20T01:02:39;102216.75;;;15.92;100.00
77311;BME280;66371;52.714;5.074;2023-08-20T01:05:10;102211.88;;;15.95;100.00
77311;BME280;66371;52.714;5.074;2023-08-20T01:08:02;102214.91;;;16.00;100.00
77311;BME280;66371;52.714;5.074;2023-08-20T01:13:16;102209.28;;;16.19;100.00
77311;BME280;66371;52.714;5.074;2023-08-20T01:15:42;102203.53;;;16.14;100.00
77311;BME280;66371;52.714;5.074;2023-08-20T01:18:07;102212.47;;;16.15;100.00
77311;BME280;66371;52.714;5.074;2023-08-20T01:20:38;102215.31;;;16.13;100.00
77311;BME280;66371;52.714;5.074;2023-08-20T01:23:29;102217.66;;;16.08;100.00
77311;BME280;66371;52.714;5.074;2023-08-20T01:28:43;102227.75;;;16.06;100.00
77311;BME280;66371;52.714;5.074;2023-08-20T01:31:09;102218.78;;;15.98;100.00
77311;BME280;66371;52.714;5.074;2023-08-20T01:33:36;102218.44;;;15.93;100.00
77311;BME280;66371;52.714;5.074;2023-08-20T01:36:01;102221.44;;;15.90;100.00
77311;BME280;66371;52.714;5.074;2023-08-20T01:38:27;102219.72;;;15.80;100.00
77311;BME280;66371;52.714;5.074;2023-08-20T01:40:52;102211.78;;;15.79;100.00
77311;BME280;66371;52.714;5.074;2023-08-20T01:43:18;102215.13;;;15.73;100.00
77311;BME280;66371;52.714;5.074;2023-08-20T01:45:43;102216.97;;;15.72;100.00
77311;BME280;66371;52.714;5.074;2023-08-20T01:48:09;102218.19;;;15.78;100.00
77311;BME280;66371;52.714;5.074;2023-08-20T01:50:35;102216.50;;;15.77;100.00
77311;BME280;66371;52.714;5.074;2023-08-20T01:53:02;102218.19;;;15.78;100.00
77311;BME280;66371;52.714;5.074;2023-08-20T01:55:28;102215.13;;;15.73;100.00
77311;BME280;66371;52.714;5.074;2023-08-20T01:57:53;102203.97;;;15.68;100.00
77311;BME280;66371;52.714;5.074;2023-08-20T02:00:19;102206.81;;;15.66;100.00
77311;BME280;66371;52.714;5.074;2023-08-20T02:02:44;102208.84;;;15.64;100.00
77311;BME280;66371;52.714;5.074;2023-08-20T02:05:10;102215.06;;;15.65;100.00
77311;BME280;66371;52.714;5.074;2023-08-20T02:07:38;102219.09;;;15.61;100.00
77311;BME280;66371;52.714;5.074;2023-08-20T02:10:04;102217.75;;;15.57;100.00
77311;BME280;66371;52.714;5.074;2023-08-20T02:12:29;102217.53;;;15.50;100.00
77311;BME280;66371;52.714;5.074;2023-08-20T02:14:55;102211.28;;;15.50;100.00
77311;BME280;66371;52.714;5.074;2023-08-20T02:17:20;102210.81;;;15.54;100.00
77311;BME280;66371;52.714;5.074;2023-08-20T02:19:46;102213.03;;;15.59;100.00
77311;BME280;66371;52.714;5.074;2023-08-20T02:22:11;102209.69;;;15.65;100.00
77311;BME280;66371;52.714;5.074;2023-08-20T02:24:36;102210.69;;;15.64;100.00
77311;BME280;66371;52.714;5.074;2023-08-20T02:27:02;102199.88;;;15.56;100.00
77311;BME280;66371;52.714;5.074;2023-08-20T02:29:28;102199.69;;;15.57;100.00
77311;BME280;66371;52.714;5.074;2023-08-20T02:31:53;102194.59;;;15.46;100.00
77311;BME280;66371;52.714;5.074;2023-08-20T02:34:19;102196.13;;;15.49;100.00
77311;BME280;66371;52.714;5.074;2023-08-20T02:36:44;102203.66;;;15.45;100.00
77311;BME280;66371;52.714;5.074;2023-08-20T02:39:09;102204.16;;;15.41;100.00
77311;BME280;66371;52.714;5.074;2023-08-20T02:41:35;102216.22;;;15.37;100.00
77311;BME280;66371;52.714;5.074;2023-08-20T02:44:01;102220.06;;;15.34;100.00
77311;BME280;66371;52.714;5.074;2023-08-20T02:46:27;102214.84;;;15.33;100.00
77311;BME280;66371;52.714;5.074;2023-08-20T02:48:52;102203.22;;;15.32;100.00
77311;BME280;66371;52.714;5.074;2023-08-20T02:51:17;102207.75;;;15.32;100.00
77311;BME280;66371;52.714;5.074;2023-08-20T02:53:43;102205.91;;;15.32;100.00
77311;BME280;66371;52.714;5.074;2023-08-20T02:56:08;102213.47;;;15.29;100.00
77311;BME280;66371;52.714;5.074;2023-08-20T02:58:34;102224.56;;;15.26;100.00
77311;BME280;66371;52.714;5.074;2023-08-20T03:00:59;102218.84;;;15.29;100.00
77311;BME280;66371;52.714;5.074;2023-08-20T03:03:25;102225.28;;;15.36;100.00
77311;BME280;66371;52.714;5.074;2023-08-20T03:05:50;102231.25;;;15.39;100.00
77311;BME280;66371;52.714;5.074;2023-08-20T03:08:16;102232.03;;;15.49;100.00
77311;BME280;66371;52.714;5.074;2023-08-20T03:10:41;102235.06;;;15.54;100.00
77311;BME280;66371;52.714;5.074;2023-08-20T03:13:07;102226.81;;;15.56;100.00
77311;BME280;66371;52.714;5.074;2023-08-20T03:15:32;102233.38;;;15.53;100.00
77311;BME280;66371;52.714;5.074;2023-08-20T03:17:58;102236.22;;;15.52;100.00
77311;BME280;66371;52.714;5.074;2023-08-20T03:20:23;102244.16;;;15.53;100.00
77311;BME280;66371;52.714;5.074;2023-08-20T03:22:49;102242.47;;;15.52;100.00
77311;BME280;66371;52.714;5.074;2023-08-20T03:25:14;102236.56;;;15.49;100.00
77311;BME280;66371;52.714;5.074;2023-08-20T03:27:40;102235.19;;;15.45;100.00
77311;BME280;66371;52.714;5.074;2023-08-20T03:30:05;102246.28;;;15.42;100.00
77311;BME280;66371;52.714;5.074;2023-08-20T03:32:32;102246.56;;;15.39;100.00
77311;BME280;66371;52.714;5.074;2023-08-20T03:34:57;102252.41;;;15.34;100.00
77311;BME280;66371;52.714;5.074;2023-08-20T03:37:25;102251.88;;;15.31;100.00
77311;BME280;66371;52.714;5.074;2023-08-20T03:39:51;102251.81;;;15.23;100.00
77311;BME280;66371;52.714;5.074;2023-08-20T03:42:16;102246.19;;;15.16;100.00
77311;BME280;66371;52.714;5.074;2023-08-20T03:44:42;102251.91;;;15.13;100.00
77311;BME280;66371;52.714;5.074;2023-08-20T03:47:07;102246.63;;;15.04;100.00
77311;BME280;66371;52.714;5.074;2023-08-20T03:49:32;102253.13;;;15.01;100.00
77311;BME280;66371;52.714;5.074;2023-08-20T03:51:58;102255.53;;;15.04;100.00
77311;BME280;66371;52.714;5.074;2023-08-20T03:54:23;102256.69;;;15.02;100.00
77311;BME280;66371;52.714;5.074;2023-08-20T03:56:49;102257.53;;;15.02;100.00
77311;BME280;66371;52.714;5.074;2023-08-20T03:59:14;102258.84;;;14.98;100.00
77311;BME280;66371;52.714;5.074;2023-08-20T04:01:40;102265.06;;;14.99;100.00
77311;BME280;66371;52.714;5.074;2023-08-20T04:04:05;102258.28;;;14.95;100.00
77311;BME280;66371;52.714;5.074;2023-08-20T04:06:31;102262.16;;;14.92;100.00
77311;BME280;66371;52.714;5.074;2023-08-20T04:08:56;102263.97;;;14.92;100.00
77311;BME280;66371;52.714;5.074;2023-08-20T04:11:22;102262.28;;;14.91;100.00
77311;BME280;66371;52.714;5.074;2023-08-20T04:13:48;102266.66;;;14.92;100.00
77311;BME280;66371;52.714;5.074;2023-08-20T04:16:14;102263.66;;;14.95;100.00
77311;BME280;66371;52.714;5.074;2023-08-20T04:18:40;102256.59;;;14.94;100.00
77311;BME280;66371;52.714;5.074;2023-08-20T04:21:06;102253.75;;;14.95;100.00
77311;BME280;66371;52.714;5.074;2023-08-20T04:23:32;102261.84;;;14.95;100.00
77311;BME280;66371;52.714;5.074;2023-08-20T04:25:58;102267.06;;;14.97;100.00
77311;BME280;66371;52.714;5.074;2023-08-20T04:28:23;102270.16;;;15.02;100.00
77311;BME280;66371;52.714;5.074;2023-08-20T04:30:52;102268.00;;;15.05;100.00
77311;BME280;66371;52.714;5.074;2023-08-20T04:33:19;102277.22;;;15.03;100.00
77311;BME280;66371;52.714;5.074;2023-08-20T04:35:45;102281.09;;;15.00;100.00
77311;BME280;66371;52.714;5.074;2023-08-20T04:38:10;102291.69;;;15.02;100.00
77311;BME280;66371;52.714;5.074;2023-08-20T04:40:35;102271.59;;;14.96;100.00
77311;BME280;66371;52.714;5.074;2023-08-20T04:43:01;102278.38;;;15.00;100.00
77311;BME280;66371;52.714;5.074;2023-08-20T04:45:26;102283.16;;;15.06;100.00
77311;BME280;66371;52.714;5.074;2023-08-20T04:47:52;102285.53;;;15.09;100.00
77311;BME280;66371;52.714;5.074;2023-08-20T04:50:17;102278.53;;;15.16;100.00
77311;BME280;66371;52.714;5.074;2023-08-20T04:52:42;102289.22;;;15.26;100.00
77311;BME280;66371;52.714;5.074;2023-08-20T04:55:08;102285.91;;;15.32;100.00
77311;BME280;66371;52.714;5.074;2023-08-20T04:57:34;102292.38;;;15.39;100.00
77311;BME280;66371;52.714;5.074;2023-08-20T04:59:59;102284.28;;;15.39;100.00
77311;BME280;66371;52.714;5.074;2023-08-20T05:02:25;102288.06;;;15.46;100.00
77311;BME280;66371;52.714;5.074;2023-08-20T05:04:51;102291.00;;;15.52;100.00
77311;BME280;66371;52.714;5.074;2023-08-20T05:07:16;102282.53;;;15.99;100.00
77311;BME280;66371;52.714;5.074;2023-08-20T05:09:41;102279.75;;;16.58;100.00
77311;BME280;66371;52.714;5.074;2023-08-20T05:12:07;102277.00;;;17.07;100.00
77311;BME280;66371;52.714;5.074;2023-08-20T05:14:33;102267.38;;;17.37;100.00
77311;BME280;66371;52.714;5.074;2023-08-20T05:16:59;102268.03;;;17.79;100.00
77311;BME280;66371;52.714;5.074;2023-08-20T05:19:24;102249.88;;;18.04;100.00
77311;BME280;66371;52.714;5.074;2023-08-20T05:21:49;102256.56;;;18.24;100.00
77311;BME280;66371;52.714;5.074;2023-08-20T05:24:15;102260.13;;;18.16;100.00
77311;BME280;66371;52.714;5.074;2023-08-20T05:26:40;102270.06;;;17.77;100.00
77311;BME280;66371;52.714;5.074;2023-08-20T05:29:06;102273.16;;;17.50;100.00
77311;BME280;66371;52.714;5.074;2023-08-20T05:31:31;102272.28;;;17.33;100.00
77311;BME280;66371;52.714;5.074;2023-08-20T05:33:57;102276.31;;;17.29;100.00
77311;BME280;66371;52.714;5.074;2023-08-20T05:36:23;102283.78;;;17.27;100.00
77311;BME280;66371;52.714;5.074;2023-08-20T05:38:49;102288.66;;;17.24;100.00
77311;BME280;66371;52.714;5.074;2023-08-20T05:41:15;102289.50;;;17.32;100.00
77311;BME280;66371;52.714;5.074;2023-08-20T05:43:40;102284.09;;;17.40;100.00
77311;BME280;66371;52.714;5.074;2023-08-20T05:46:06;102280.75;;;17.38;100.00
77311;BME280;66371;52.714;5.074;2023-08-20T05:48:31;102283.47;;;17.46;100.00
77311;BME280;66371;52.714;5.074;2023-08-20T05:50:57;102283.81;;;17.52;100.00
77311;BME280;66371;52.714;5.074;2023-08-20T05:53:22;102278.41;;;17.60;100.00
77311;BME280;66371;52.714;5.074;2023-08-20T05:55:48;102276.84;;;17.65;100.00
77311;BME280;66371;52.714;5.074;2023-08-20T05:58:13;102285.94;;;17.80;100.00
77311;BME280;66371;52.714;5.074;2023-08-20T06:00:39;102283.75;;;17.92;100.00
77311;BME280;66371;52.714;5.074;2023-08-20T06:03:05;102281.31;;;18.05;100.00
77311;BME280;66371;52.714;5.074;2023-08-20T06:05:30;102281.78;;;18.16;100.00
77311;BME280;66371;52.714;5.074;2023-08-20T06:07:56;102276.00;;;18.27;100.00
77311;BME280;66371;52.714;5.074;2023-08-20T06:10:21;102274.94;;;18.36;100.00
77311;BME280;66371;52.714;5.074;2023-08-20T06:12:47;102278.31;;;18.46;100.00
77311;BME280;66371;52.714;5.074;2023-08-20T06:15:13;102271.69;;;18.49;100.00
77311;BME280;66371;52.714;5.074;2023-08-20T06:17:38;102279.94;;;18.63;100.00
77311;BME280;66371;52.714;5.074;2023-08-20T06:20:04;102276.19;;;18.64;100.00
77311;BME280;66371;52.714;5.074;2023-08-20T06:22:34;102284.75;;;18.76;100.00
77311;BME280;66371;52.714;5.074;2023-08-20T06:25:00;102285.03;;;18.89;100.00
77311;BME280;66371;52.714;5.074;2023-08-20T06:27:25;102283.59;;;19.01;100.00
77311;BME280;66371;52.714;5.074;2023-08-20T06:29:51;102286.25;;;19.09;100.00
77311;BME280;66371;52.714;5.074;2023-08-20T06:32:16;102287.13;;;19.24;100.00
77311;BME280;66371;52.714;5.074;2023-08-20T06:34:41;102285.41;;;19.31;100.00
77311;BME280;66371;52.714;5.074;2023-08-20T06:37:07;102288.56;;;19.43;100.00
77311;BME280;66371;52.714;5.074;2023-08-20T06:39:32;102286.59;;;19.51;100.00
77311;BME280;66371;52.714;5.074;2023-08-20T06:41:57;102295.22;;;19.69;100.00
77311;BME280;66371;52.714;5.074;2023-08-20T06:44:23;102285.50;;;19.75;100.00
77311;BME280;66371;52.714;5.074;2023-08-20T06:46:48;102285.91;;;19.86;100.00
77311;BME280;66371;52.714;5.074;2023-08-20T06:49:14;102292.38;;;19.85;100.00
77311;BME280;66371;52.714;5.074;2023-08-20T06:51:39;102281.78;;;19.90;100.00
77311;BME280;66371;52.714;5.074;2023-08-20T06:54:05;102290.41;;;20.08;100.00
77311;BME280;66371;52.714;5.074;2023-08-20T06:56:33;102290.81;;;20.20;100.00
77311;BME280;66371;52.714;5.074;2023-08-20T06:59:00;102294.28;;;20.28;100.00
77311;BME280;66371;52.714;5.074;2023-08-20T07:01:25;102296.06;;;20.21;100.00
77311;BME280;66371;52.714;5.074;2023-08-20T07:03:51;102299.72;;;20.14;100.00
77311;BME280;66371;52.714;5.074;2023-08-20T07:06:16;102299.44;;;20.23;100.00
77311;BME280;66371;52.714;5.074;2023-08-20T07:08:43;102299.59;;;20.36;100.00
77311;BME280;66371;52.714;5.074;2023-08-20T07:11:09;102296.66;;;20.52;100.00
77311;BME280;66371;52.714;5.074;2023-08-20T07:13:35;102294.91;;;20.59;100.00
77311;BME280;66371;52.714;5.074;2023-08-20T07:16:00;102300.38;;;20.80;100.00
77311;BME280;66371;52.714;5.074;2023-08-20T07:18:25;102305.28;;;20.70;100.00
77311;BME280;66371;52.714;5.074;2023-08-20T07:20:51;102310.84;;;20.83;100.00
77311;BME280;66371;52.714;5.074;2023-08-20T07:23:17;102318.41;;;20.67;100.00
77311;BME280;66371;52.714;5.074;2023-08-20T07:25:43;102317.44;;;20.74;100.00
77311;BME280;66371;52.714;5.074;2023-08-20T07:28:10;102316.97;;;20.85;100.00
77311;BME280;66371;52.714;5.074;2023-08-20T07:30:36;102318.72;;;20.93;100.00
77311;BME280;66371;52.714;5.074;2023-08-20T07:33:02;102322.84;;;21.04;100.00
77311;BME280;66371;52.714;5.074;2023-08-20T07:35:27;102318.84;;;21.00;100.00
77311;BME280;66371;52.714;5.074;2023-08-20T07:37:53;102326.84;;;21.29;100.00
77311;BME280;66371;52.714;5.074;2023-08-20T07:40:18;102316.44;;;21.32;100.00
77311;BME280;66371;52.714;5.074;2023-08-20T07:42:44;102309.63;;;21.43;100.00
77311;BME280;66371;52.714;5.074;2023-08-20T07:45:10;102317.75;;;21.36;100.00
77311;BME280;66371;52.714;5.074;2023-08-20T07:47:36;102321.94;;;21.39;100.00
77311;BME280;66371;52.714;5.074;2023-08-20T07:50:05;102326.72;;;21.37;100.00
77311;BME280;66371;52.714;5.074;2023-08-20T07:52:31;102334.19;;;21.28;100.00
77311;BME280;66371;52.714;5.074;2023-08-20T07:54:57;102335.25;;;21.55;100.00
77311;BME280;66371;52.714;5.074;2023-08-20T07:57:22;102332.38;;;21.77;100.00
77311;BME280;66371;52.714;5.074;2023-08-20T07:59:49;102329.91;;;21.61;100.00
77311;BME280;66371;52.714;5.074;2023-08-20T08:02:15;102340.78;;;21.61;100.00
77311;BME280;66371;52.714;5.074;2023-08-20T08:04:41;102346.88;;;21.84;100.00
77311;BME280;66371;52.714;5.074;2023-08-20T08:07:07;102340.25;;;21.72;100.00
77311;BME280;66371;52.714;5.074;2023-08-20T08:09:33;102352.38;;;21.91;100.00
77311;BME280;66371;52.714;5.074;2023-08-20T08:11:59;102346.19;;;21.76;100.00
77311;BME280;66371;52.714;5.074;2023-08-20T08:14:24;102342.75;;;21.95;100.00
77311;BME280;66371;52.714;5.074;2023-08-20T08:16:50;102337.56;;;22.34;99.21
77311;BME280;66371;52.714;5.074;2023-08-20T08:19:16;102340.06;;;22.57;97.91
77311;BME280;66371;52.714;5.074;2023-08-20T08:21:43;102335.66;;;22.62;96.70
77311;BME280;66371;52.714;5.074;2023-08-20T08:24:09;102350.44;;;22.46;95.24
77311;BME280;66371;52.714;5.074;2023-08-20T08:26:35;102347.25;;;22.43;92.26
77311;BME280;66371;52.714;5.074;2023-08-20T08:29:05;102350.78;;;22.37;89.69
77311;BME280;66371;52.714;5.074;2023-08-20T08:31:30;102345.59;;;22.42;90.28
77311;BME280;66371;52.714;5.074;2023-08-20T08:33:56;102347.66;;;22.40;91.62
77311;BME280;66371;52.714;5.074;2023-08-20T08:36:21;102348.03;;;22.58;91.54
77311;BME280;66371;52.714;5.074;2023-08-20T08:38:47;102357.34;;;22.49;92.08
77311;BME280;66371;52.714;5.074;2023-08-20T08:41:13;102351.97;;;21.94;92.58
77311;BME280;66371;52.714;5.074;2023-08-20T08:43:39;102350.94;;;21.74;94.59
77311;BME280;66371;52.714;5.074;2023-08-20T08:46:14;102357.44;;;21.94;94.98
77311;BME280;66371;52.714;5.074;2023-08-20T08:48:43;102368.31;;;21.73;92.71
77311;BME280;66371;52.714;5.074;2023-08-20T08:51:09;102365.94;;;21.63;93.85
77311;BME280;66371;52.714;5.074;2023-08-20T08:53:35;102365.38;;;21.47;92.61
77311;BME280;66371;52.714;5.074;2023-08-20T08:56:01;102369.09;;;21.67;93.18
77311;BME280;66371;52.714;5.074;2023-08-20T08:58:28;102357.97;;;21.83;91.05
77311;BME280;66371;52.714;5.074;2023-08-20T09:00:53;102364.94;;;22.19;91.25
77311;BME280;66371;52.714;5.074;2023-08-20T09:03:18;102362.06;;;22.55;91.76
77311;BME280;66371;52.714;5.074;2023-08-20T09:05:48;102359.63;;;22.80;90.91
77311;BME280;66371;52.714;5.074;2023-08-20T09:08:28;102359.84;;;22.78;85.66
77311;BME280;66371;52.714;5.074;2023-08-20T09:11:00;102365.59;;;22.96;84.82
77311;BME280;66371;52.714;5.074;2023-08-20T09:13:46;102368.56;;;23.08;85.05
77311;BME280;66371;52.714;5.074;2023-08-20T09:16:12;102361.88;;;23.17;83.69
77311;BME280;66371;52.714;5.074;2023-08-20T09:18:38;102375.38;;;23.31;85.91
77311;BME280;66371;52.714;5.074;2023-08-20T09:21:08;102376.00;;;23.33;85.94
77311;BME280;66371;52.714;5.074;2023-08-20T09:23:35;102370.25;;;23.15;85.22
77311;BME280;66371;52.714;5.074;2023-08-20T09:26:05;102370.41;;;22.94;84.59
77311;BME280;66371;52.714;5.074;2023-08-20T09:28:41;102369.03;;;22.64;85.46
77311;BME280;66371;52.714;5.074;2023-08-20T09:31:07;102373.28;;;22.45;84.45
77311;BME280;66371;52.714;5.074;2023-08-20T09:33:32;102378.28;;;22.42;85.67
77311;BME280;66371;52.714;5.074;2023-08-20T09:35:58;102385.00;;;22.39;85.38
77311;BME280;66371;52.714;5.074;2023-08-20T09:38:24;102373.81;;;22.62;85.94
77311;BME280;66371;52.714;5.074;2023-08-20T09:40:51;102372.75;;;22.57;86.72
77311;BME280;66371;52.714;5.074;2023-08-20T09:43:18;102374.59;;;21.94;86.16
77311;BME280;66371;52.714;5.074;2023-08-20T09:45:46;102386.22;;;22.37;87.96
77311;BME280;66371;52.714;5.074;2023-08-20T09:48:13;102380.78;;;22.71;89.77
77311;BME280;66371;52.714;5.074;2023-08-20T09:50:43;102376.44;;;22.83;86.57
77311;BME280;66371;52.714;5.074;2023-08-20T09:53:20;102386.16;;;22.99;85.31
77311;BME280;66371;52.714;5.074;2023-08-20T09:55:49;102373.81;;;22.62;85.06
77311;BME280;66371;52.714;5.074;2023-08-20T09:58:15;102376.31;;;22.57;86.84
77311;BME280;66371;52.714;5.074;2023-08-20T10:00:42;102383.34;;;22.45;85.00
77311;BME280;66371;52.714;5.074;2023-08-20T10:03:07;102387.41;;;22.28;83.66
77311;BME280;66371;52.714;5.074;2023-08-20T10:05:33;102388.34;;;22.41;85.47
77311;BME280;66371;52.714;5.074;2023-08-20T10:07:58;102380.34;;;22.61;84.30
77311;BME280;66371;52.714;5.074;2023-08-20T10:10:25;102383.56;;;22.84;82.11
77311;BME280;66371;52.714;5.074;2023-08-20T10:12:51;102382.75;;;22.90;82.38
77311;BME280;66371;52.714;5.074;2023-08-20T10:15:17;102386.09;;;22.79;82.51
77311;BME280;66371;52.714;5.074;2023-08-20T10:17:44;102384.59;;;22.77;82.32
77311;BME280;66371;52.714;5.074;2023-08-20T10:20:12;102385.81;;;23.21;82.80
77311;BME280;66371;52.714;5.074;2023-08-20T10:22:39;102385.81;;;23.21;82.66
77311;BME280;66371;52.714;5.074;2023-08-20T10:25:12;102374.88;;;23.15;81.94
77311;BME280;66371;52.714;5.074;2023-08-20T10:27:40;102384.97;;;23.14;83.91
77311;BME280;66371;52.714;5.074;2023-08-20T10:30:09;102377.78;;;23.00;80.82
77311;BME280;66371;52.714;5.074;2023-08-20T10:32:50;102387.59;;;23.42;83.15
77311;BME280;66371;52.714;5.074;2023-08-20T10:35:24;102378.28;;;23.30;80.64
77311;BME280;66371;52.714;5.074;2023-08-20T10:38:07;102384.19;;;23.33;81.67
77311;BME280;66371;52.714;5.074;2023-08-20T10:40:58;102387.81;;;22.93;80.75
77311;BME280;66371;52.714;5.074;2023-08-20T10:46:26;102390.53;;;22.87;81.03
77311;BME280;66371;52.714;5.074;2023-08-20T10:48:55;102378.16;;;22.91;81.45
77311;BME280;66371;52.714;5.074;2023-08-20T10:59:07;102388.63;;;23.41;78.37
77311;BME280;66371;52.714;5.074;2023-08-20T11:01:34;102391.28;;;23.21;77.35
77311;BME280;66371;52.714;5.074;2023-08-20T11:04:00;102385.91;;;23.47;78.72
77311;BME280;66371;52.714;5.074;2023-08-20T11:06:31;102385.06;;;23.47;81.15
77311;BME280;66371;52.714;5.074;2023-08-20T11:08:57;102383.00;;;23.55;79.59
77311;BME280;66371;52.714;5.074;2023-08-20T11:11:23;102370.19;;;23.69;80.19
77311;BME280;66371;52.714;5.074;2023-08-20T11:13:49;102393.94;;;23.75;74.34
77311;BME280;66371;52.714;5.074;2023-08-20T11:16:14;102389.09;;;23.70;75.76
77311;BME280;66371;52.714;5.074;2023-08-20T11:18:40;102383.59;;;23.57;74.35
77311;BME280;66371;52.714;5.074;2023-08-20T11:21:07;102386.78;;;23.67;74.40
77311;BME280;66371;52.714;5.074;2023-08-20T11:23:32;102373.72;;;23.50;74.28
77311;BME280;66371;52.714;5.074;2023-08-20T11:25:58;102388.84;;;23.59;75.37
77311;BME280;66371;52.714;5.074;2023-08-20T11:28:25;102385.94;;;23.73;75.08
77311;BME280;66371;52.714;5.074;2023-08-20T11:30:51;102385.91;;;23.60;74.69
77311;BME280;66371;52.714;5.074;2023-08-20T11:33:17;102369.16;;;23.83;76.79
77311;BME280;66371;52.714;5.074;2023-08-20T11:35:42;102375.84;;;23.80;74.22
77311;BME280;66371;52.714;5.074;2023-08-20T11:38:10;102377.53;;;23.68;74.36
77311;BME280;66371;52.714;5.074;2023-08-20T11:40:36;102363.66;;;23.89;74.78
77311;BME280;66371;52.714;5.074;2023-08-20T11:43:01;102381.09;;;23.62;74.65
77311;BME280;66371;52.714;5.074;2023-08-20T11:45:27;102368.72;;;23.79;74.50
77311;BME280;66371;52.714;5.074;2023-08-20T11:47:56;102383.66;;;24.09;74.65
77311;BME280;66371;52.714;5.074;2023-08-20T11:50:22;102383.84;;;23.88;73.25
77311;BME280;66371;52.714;5.074;2023-08-20T11:52:48;102381.97;;;24.15;73.18
77311;BME280;66371;52.714;5.074;2023-08-20T11:55:13;102373.16;;;24.06;71.71
77311;BME280;66371;52.714;5.074;2023-08-20T11:57:38;102381.31;;;23.93;72.51
77311;BME280;66371;52.714;5.074;2023-08-20T12:00:05;102381.09;;;23.69;72.55
77311;BME280;66371;52.714;5.074;2023-08-20T12:02:35;102383.00;;;23.55;73.30
77311;BME280;66371;52.714;5.074;2023-08-20T12:05:00;102387.63;;;23.61;74.23
77311;BME280;66371;52.714;5.074;2023-08-20T12:07:26;102382.78;;;23.76;75.36
77311;BME280;66371;52.714;5.074;2023-08-20T12:09:55;102383.59;;;23.57;71.95
77311;BME280;66371;52.714;5.074;2023-08-20T12:12:21;102387.69;;;23.14;76.47
77311;BME280;66371;52.714;5.074;2023-08-20T12:14:47;102392.88;;;23.03;75.90
77311;BME280;66371;52.714;5.074;2023-08-20T12:17:17;102398.97;;;23.05;77.07
77311;BME280;66371;52.714;5.074;2023-08-20T12:19:44;102396.69;;;23.08;75.40
77311;BME280;66371;52.714;5.074;2023-08-20T12:22:09;102389.81;;;23.25;76.97
77311;BME280;66371;52.714;5.074;2023-08-20T12:24:35;102394.50;;;23.38;79.27
77311;BME280;66371;52.714;5.074;2023-08-20T12:27:00;102404.91;;;23.21;78.82
77311;BME280;66371;52.714;5.074;2023-08-20T12:29:26;102400.78;;;23.32;77.62
77311;BME280;66371;52.714;5.074;2023-08-20T12:31:51;102406.66;;;23.35;77.29
77311;BME280;66371;52.714;5.074;2023-08-20T12:34:16;102404.91;;;23.21;75.40
77311;BME280;66371;52.714;5.074;2023-08-20T12:36:42;102410.13;;;23.10;73.76
77311;BME280;66371;52.714;5.074;2023-08-20T12:39:07;102411.78;;;23.04;75.12
77311;BME280;66371;52.714;5.074;2023-08-20T12:41:33;102409.09;;;23.24;75.50
77311;BME280;66371;52.714;5.074;2023-08-20T12:44:01;102406.00;;;23.27;72.45
77311;BME280;66371;52.714;5.074;2023-08-20T12:46:27;102399.00;;;23.18;72.64
77311;BME280;66371;52.714;5.074;2023-08-20T12:48:52;102397.25;;;23.57;73.34
77311;BME280;66371;52.714;5.074;2023-08-20T12:51:18;102403.53;;;23.51;70.68
77311;BME280;66371;52.714;5.074;2023-08-20T12:53:43;102407.31;;;23.37;72.40
77311;BME280;66371;52.714;5.074;2023-08-20T12:56:09;102403.75;;;23.50;72.17